sensor_id;sensor_type;location;lat;lon;timestamp;P1;durP1;ratioP1;P2;durP2;ratioP2
22713;SDS011;11524;50.846;4.326;2023-04-10T00:02:07;4.63;;;3.70;;
22713;SDS011;11524;50.846;4.326;2023-04-10T00:04:32;4.32;;;3.55;;
22713;SDS011;11524;50.846;4.326;2023-04-10T00:06:58;4.13;;;3.50;;
22713;SDS011;11524;50.846;4.326;2023-04-10T00:09:24;3.80;;;3.40;;
22713;SDS011;11524;50.846;4.326;2023-04-10T00:11:50;4.03;;;3.47;;
22713;SDS011;11524;50.846;4.326;2023-04-10T00:14:16;4.85;;;3.65;;
22713;SDS011;11524;50.846;4.326;2023-04-10T00:16:47;3.85;;;3.33;;
22713;SDS011;11524;50.846;4.326;2023-04-10T00:19:13;4.22;;;3.58;;
22713;SDS011;11524;50.846;4.326;2023-04-10T00:21:38;4.50;;;3.90;;
22713;SDS011;11524;50.846;4.326;2023-04-10T00:24:04;4.22;;;3.28;;
22713;SDS011;11524;50.846;4.326;2023-04-10T00:26:30;4.07;;;3.67;;
22713;SDS011;11524;50.846;4.326;2023-04-10T00:28:55;4.10;;;3.40;;
22713;SDS011;11524;50.846;4.326;2023-04-10T00:31:21;5.20;;;3.25;;
22713;SDS011;11524;50.846;4.326;2023-04-10T00:33:46;5.00;;;4.03;;
22713;SDS011;11524;50.846;4.326;2023-04-10T00:36:12;4.13;;;3.63;;
22713;SDS011;11524;50.846;4.326;2023-04-10T00:38:37;4.63;;;3.50;;
22713;SDS011;11524;50.846;4.326;2023-04-10T00:41:03;4.03;;;3.30;;
22713;SDS011;11524;50.846;4.326;2023-04-10T00:43:29;3.60;;;3.10;;
22713;SDS011;11524;50.846;4.326;2023-04-10T00:45:55;3.47;;;3.17;;
22713;SDS011;11524;50.846;4.326;2023-04-10T00:48:21;4.35;;;3.35;;
22713;SDS011;11524;50.846;4.326;2023-04-10T00:50:46;4.13;;;3.08;;
22713;SDS011;11524;50.846;4.326;2023-04-10T00:53:12;3.78;;;3.08;;
22713;SDS011;11524;50.846;4.326;2023-04-10T00:55:37;3.90;;;3.50;;
22713;SDS011;11524;50.846;4.326;2023-04-10T00:58:03;4.60;;;3.72;;
22713;SDS011;11524;50.846;4.326;2023-04-10T01:00:29;4.40;;;3.78;;
22713;SDS011;11524;50.846;4.326;2023-04-10T01:02:55;4.07;;;3.30;;
22713;SDS011;11524;50.846;4.326;2023-04-10T01:05:21;4.57;;;3.70;;
22713;SDS011;11524;50.846;4.326;2023-04-10T01:10:47;4.65;;;3.35;;
22713;SDS011;11524;50.846;4.326;2023-04-10T01:13:57;5.78;;;3.50;;
22713;SDS011;11524;50.846;4.326;2023-04-10T01:16:50;3.90;;;3.30;;
22713;SDS011;11524;50.846;4.326;2023-04-10T01:22:15;3.55;;;3.15;;
22713;SDS011;11524;50.846;4.326;2023-04-10T01:27:36;5.15;;;3.90;;
22713;SDS011;11524;50.846;4.326;2023-04-10T01:32:38;3.75;;;3.00;;
22713;SDS011;11524;50.846;4.326;2023-04-10T01:35:05;4.10;;;3.42;;
22713;SDS011;11524;50.846;4.326;2023-04-10T01:37:33;4.28;;;3.42;;
22713;SDS011;11524;50.846;4.326;2023-04-10T01:40:03;5.03;;;3.80;;
22713;SDS011;11524;50.846;4.326;2023-04-10T01:42:33;3.80;;;3.45;;
22713;SDS011;11524;50.846;4.326;2023-04-10T01:45:04;3.70;;;3.33;;
22713;SDS011;11524;50.846;4.326;2023-04-10T01:47:32;4.20;;;3.38;;
22713;SDS011;11524;50.846;4.326;2023-04-10T01:49:58;4.47;;;3.47;;
22713;SDS011;11524;50.846;4.326;2023-04-10T01:52:25;4.00;;;3.40;;
22713;SDS011;11524;50.846;4.326;2023-04-10T01:54:52;3.53;;;3.00;;
22713;SDS011;11524;50.846;4.326;2023-04-10T01:57:18;3.45;;;3.10;;
22713;SDS011;11524;50.846;4.326;2023-04-10T01:59:45;3.80;;;3.05;;
22713;SDS011;11524;50.846;4.326;2023-04-10T02:02:11;5.10;;;3.20;;
22713;SDS011;11524;50.846;4.326;2023-04-10T02:04:36;4.15;;;3.40;;
22713;SDS011;11524;50.846;4.326;2023-04-10T02:07:03;3.67;;;3.30;;
22713;SDS011;11524;50.846;4.326;2023-04-10T02:12:42;4.03;;;3.40;;
22713;SDS011;11524;50.846;4.326;2023-04-10T02:15:18;4.63;;;3.25;;
22713;SDS011;11524;50.846;4.326;2023-04-10T02:17:46;3.70;;;2.95;;
22713;SDS011;11524;50.846;4.326;2023-04-10T02:20:12;4.35;;;3.35;;
22713;SDS011;11524;50.846;4.326;2023-04-10T02:22:39;6.68;;;3.70;;
22713;SDS011;11524;50.846;4.326;2023-04-10T02:25:08;3.53;;;3.20;;
22713;SDS011;11524;50.846;4.326;2023-04-10T02:27:34;4.28;;;3.63;;
22713;SDS011;11524;50.846;4.326;2023-04-10T02:30:01;3.80;;;3.22;;
22713;SDS011;11524;50.846;4.326;2023-04-10T02:32:28;5.10;;;3.45;;
22713;SDS011;11524;50.846;4.326;2023-04-10T02:34:54;6.45;;;3.10;;
22713;SDS011;11524;50.846;4.326;2023-04-10T02:37:20;3.95;;;3.15;;
22713;SDS011;11524;50.846;4.326;2023-04-10T02:39:47;4.85;;;3.08;;
22713;SDS011;11524;50.846;4.326;2023-04-10T02:42:12;3.67;;;3.22;;
22713;SDS011;11524;50.846;4.326;2023-04-10T02:44:38;5.57;;;2.95;;
22713;SDS011;11524;50.846;4.326;2023-04-10T02:47:04;4.10;;;3.00;;
22713;SDS011;11524;50.846;4.326;2023-04-10T02:49:31;3.35;;;3.05;;
22713;SDS011;11524;50.846;4.326;2023-04-10T02:51:58;4.68;;;3.10;;
22713;SDS011;11524;50.846;4.326;2023-04-10T02:54:24;4.38;;;3.45;;
22713;SDS011;11524;50.846;4.326;2023-04-10T02:56:50;4.38;;;3.10;;
22713;SDS011;11524;50.846;4.326;2023-04-10T02:59:15;3.80;;;3.05;;
22713;SDS011;11524;50.846;4.326;2023-04-10T03:01:42;4.38;;;2.90;;
22713;SDS011;11524;50.846;4.326;2023-04-10T03:04:07;4.35;;;3.42;;
22713;SDS011;11524;50.846;4.326;2023-04-10T03:06:33;3.80;;;3.15;;
22713;SDS011;11524;50.846;4.326;2023-04-10T03:08:59;5.90;;;3.10;;
22713;SDS011;11524;50.846;4.326;2023-04-10T03:11:25;5.40;;;3.42;;
22713;SDS011;11524;50.846;4.326;2023-04-10T03:13:51;4.25;;;3.35;;
22713;SDS011;11524;50.846;4.326;2023-04-10T03:16:16;5.10;;;3.10;;
22713;SDS011;11524;50.846;4.326;2023-04-10T03:18:42;5.30;;;3.17;;
22713;SDS011;11524;50.846;4.326;2023-04-10T03:21:08;4.07;;;3.40;;
22713;SDS011;11524;50.846;4.326;2023-04-10T03:23:34;4.70;;;3.40;;
22713;SDS011;11524;50.846;4.326;2023-04-10T03:26:00;4.32;;;2.88;;
22713;SDS011;11524;50.846;4.326;2023-04-10T03:28:26;3.38;;;3.08;;
22713;SDS011;11524;50.846;4.326;2023-04-10T03:30:52;4.10;;;3.35;;
22713;SDS011;11524;50.846;4.326;2023-04-10T03:33:17;3.70;;;2.83;;
22713;SDS011;11524;50.846;4.326;2023-04-10T03:35:46;4.65;;;3.10;;
22713;SDS011;11524;50.846;4.326;2023-04-10T03:38:12;4.07;;;2.85;;
22713;SDS011;11524;50.846;4.326;2023-04-10T03:40:38;4.07;;;2.80;;
22713;SDS011;11524;50.846;4.326;2023-04-10T03:43:03;4.03;;;2.75;;
22713;SDS011;11524;50.846;4.326;2023-04-10T03:45:29;3.40;;;3.10;;
22713;SDS011;11524;50.846;4.326;2023-04-10T03:47:54;5.18;;;3.25;;
22713;SDS011;11524;50.846;4.326;2023-04-10T03:50:20;5.30;;;3.33;;
22713;SDS011;11524;50.846;4.326;2023-04-10T03:52:45;3.65;;;3.25;;
22713;SDS011;11524;50.846;4.326;2023-04-10T03:55:13;3.83;;;3.35;;
22713;SDS011;11524;50.846;4.326;2023-04-10T03:57:43;3.60;;;3.20;;
22713;SDS011;11524;50.846;4.326;2023-04-10T04:00:12;3.50;;;2.80;;
22713;SDS011;11524;50.846;4.326;2023-04-10T04:02:38;2.95;;;2.65;;
22713;SDS011;11524;50.846;4.326;2023-04-10T04:05:04;2.95;;;2.55;;
22713;SDS011;11524;50.846;4.326;2023-04-10T04:07:30;4.10;;;2.92;;
22713;SDS011;11524;50.846;4.326;2023-04-10T04:09:55;3.22;;;2.80;;
22713;SDS011;11524;50.846;4.326;2023-04-10T04:12:21;3.97;;;3.00;;
22713;SDS011;11524;50.846;4.326;2023-04-10T04:14:46;5.07;;;2.97;;
22713;SDS011;11524;50.846;4.326;2023-04-10T04:17:12;5.45;;;3.25;;
22713;SDS011;11524;50.846;4.326;2023-04-10T04:19:38;5.47;;;2.85;;
22713;SDS011;11524;50.846;4.326;2023-04-10T04:22:03;7.72;;;3.42;;
22713;SDS011;11524;50.846;4.326;2023-04-10T04:24:29;3.20;;;2.90;;
22713;SDS011;11524;50.846;4.326;2023-04-10T04:26:55;3.65;;;2.95;;
22713;SDS011;11524;50.846;4.326;2023-04-10T04:29:21;4.85;;;3.17;;
22713;SDS011;11524;50.846;4.326;2023-04-10T04:31:47;4.13;;;2.88;;
22713;SDS011;11524;50.846;4.326;2023-04-10T04:34:12;3.40;;;2.85;;
22713;SDS011;11524;50.846;4.326;2023-04-10T04:36:38;6.53;;;2.92;;
22713;SDS011;11524;50.846;4.326;2023-04-10T04:39:04;4.00;;;2.60;;
22713;SDS011;11524;50.846;4.326;2023-04-10T04:41:29;3.17;;;2.67;;
22713;SDS011;11524;50.846;4.326;2023-04-10T04:43:56;3.42;;;3.13;;
22713;SDS011;11524;50.846;4.326;2023-04-10T04:46:22;4.53;;;2.80;;
22713;SDS011;11524;50.846;4.326;2023-04-10T04:48:48;3.80;;;3.17;;
22713;SDS011;11524;50.846;4.326;2023-04-10T04:51:14;3.53;;;2.90;;
22713;SDS011;11524;50.846;4.326;2023-04-10T04:53:40;3.28;;;2.95;;
22713;SDS011;11524;50.846;4.326;2023-04-10T04:56:05;2.85;;;2.30;;
22713;SDS011;11524;50.846;4.326;2023-04-10T04:58:31;4.05;;;3.10;;
22713;SDS011;11524;50.846;4.326;2023-04-10T05:00:57;3.22;;;2.55;;
22713;SDS011;11524;50.846;4.326;2023-04-10T05:03:23;4.00;;;2.90;;
22713;SDS011;11524;50.846;4.326;2023-04-10T05:05:48;4.97;;;2.88;;
22713;SDS011;11524;50.846;4.326;2023-04-10T05:08:14;3.10;;;2.72;;
22713;SDS011;11524;50.846;4.326;2023-04-10T05:10:39;4.20;;;3.10;;
22713;SDS011;11524;50.846;4.326;2023-04-10T05:13:05;3.28;;;2.83;;
22713;SDS011;11524;50.846;4.326;2023-04-10T05:15:31;4.25;;;3.17;;
22713;SDS011;11524;50.846;4.326;2023-04-10T05:17:56;4.00;;;3.10;;
22713;SDS011;11524;50.846;4.326;2023-04-10T05:20:22;2.85;;;2.40;;
22713;SDS011;11524;50.846;4.326;2023-04-10T05:22:48;3.10;;;2.60;;
22713;SDS011;11524;50.846;4.326;2023-04-10T05:25:14;3.20;;;2.67;;
22713;SDS011;11524;50.846;4.326;2023-04-10T05:27:40;4.22;;;2.97;;
22713;SDS011;11524;50.846;4.326;2023-04-10T05:30:05;5.15;;;2.58;;
22713;SDS011;11524;50.846;4.326;2023-04-10T05:32:32;3.28;;;2.42;;
22713;SDS011;11524;50.846;4.326;2023-04-10T05:34:57;3.20;;;2.90;;
22713;SDS011;11524;50.846;4.326;2023-04-10T05:37:23;2.75;;;2.47;;
22713;SDS011;11524;50.846;4.326;2023-04-10T05:39:48;4.88;;;3.03;;
22713;SDS011;11524;50.846;4.326;2023-04-10T05:42:14;4.82;;;3.10;;
22713;SDS011;11524;50.846;4.326;2023-04-10T05:44:40;3.65;;;2.85;;
22713;SDS011;11524;50.846;4.326;2023-04-10T05:47:05;4.10;;;3.10;;
22713;SDS011;11524;50.846;4.326;2023-04-10T05:49:31;3.17;;;2.70;;
22713;SDS011;11524;50.846;4.326;2023-04-10T05:51:57;3.28;;;2.75;;
22713;SDS011;11524;50.846;4.326;2023-04-10T05:54:23;3.45;;;2.80;;
22713;SDS011;11524;50.846;4.326;2023-04-10T05:56:48;3.40;;;2.85;;
22713;SDS011;11524;50.846;4.326;2023-04-10T05:59:14;4.82;;;2.80;;
22713;SDS011;11524;50.846;4.326;2023-04-10T06:01:40;3.33;;;2.80;;
22713;SDS011;11524;50.846;4.326;2023-04-10T06:04:06;3.28;;;2.80;;
22713;SDS011;11524;50.846;4.326;2023-04-10T06:06:31;4.90;;;2.88;;
22713;SDS011;11524;50.846;4.326;2023-04-10T06:08:57;4.32;;;2.88;;
22713;SDS011;11524;50.846;4.326;2023-04-10T06:11:23;2.90;;;2.45;;
22713;SDS011;11524;50.846;4.326;2023-04-10T06:13:49;2.97;;;2.40;;
22713;SDS011;11524;50.846;4.326;2023-04-10T06:16:15;3.30;;;2.60;;
22713;SDS011;11524;50.846;4.326;2023-04-10T06:18:41;3.33;;;3.00;;
22713;SDS011;11524;50.846;4.326;2023-04-10T06:21:07;3.28;;;2.60;;
22713;SDS011;11524;50.846;4.326;2023-04-10T06:23:33;3.13;;;2.60;;
22713;SDS011;11524;50.846;4.326;2023-04-10T06:25:59;2.70;;;2.40;;
22713;SDS011;11524;50.846;4.326;2023-04-10T06:28:25;2.95;;;2.65;;
22713;SDS011;11524;50.846;4.326;2023-04-10T06:30:50;4.35;;;2.70;;
22713;SDS011;11524;50.846;4.326;2023-04-10T06:33:16;3.55;;;2.92;;
22713;SDS011;11524;50.846;4.326;2023-04-10T06:35:42;3.30;;;2.80;;
22713;SDS011;11524;50.846;4.326;2023-04-10T06:38:07;3.67;;;2.40;;
22713;SDS011;11524;50.846;4.326;2023-04-10T06:40:33;3.17;;;2.60;;
22713;SDS011;11524;50.846;4.326;2023-04-10T06:42:59;3.10;;;2.80;;
22713;SDS011;11524;50.846;4.326;2023-04-10T06:45:25;3.70;;;2.80;;
22713;SDS011;11524;50.846;4.326;2023-04-10T06:47:51;4.03;;;2.75;;
22713;SDS011;11524;50.846;4.326;2023-04-10T06:50:17;2.65;;;2.42;;
22713;SDS011;11524;50.846;4.326;2023-04-10T06:52:43;3.65;;;2.67;;
22713;SDS011;11524;50.846;4.326;2023-04-10T06:55:09;3.80;;;2.50;;
22713;SDS011;11524;50.846;4.326;2023-04-10T06:57:36;4.10;;;2.78;;
22713;SDS011;11524;50.846;4.326;2023-04-10T07:00:02;3.28;;;2.42;;
22713;SDS011;11524;50.846;4.326;2023-04-10T07:02:28;3.72;;;2.90;;
22713;SDS011;11524;50.846;4.326;2023-04-10T07:04:54;2.92;;;2.60;;
22713;SDS011;11524;50.846;4.326;2023-04-10T07:07:20;4.03;;;2.55;;
22713;SDS011;11524;50.846;4.326;2023-04-10T07:09:46;3.20;;;2.65;;
22713;SDS011;11524;50.846;4.326;2023-04-10T07:12:12;3.45;;;2.60;;
22713;SDS011;11524;50.846;4.326;2023-04-10T07:14:37;3.45;;;2.78;;
22713;SDS011;11524;50.846;4.326;2023-04-10T07:17:03;2.33;;;2.13;;
22713;SDS011;11524;50.846;4.326;2023-04-10T07:19:29;3.10;;;2.33;;
22713;SDS011;11524;50.846;4.326;2023-04-10T07:21:55;3.30;;;2.80;;
22713;SDS011;11524;50.846;4.326;2023-04-10T07:24:21;3.30;;;2.47;;
22713;SDS011;11524;50.846;4.326;2023-04-10T07:26:47;3.58;;;2.60;;
22713;SDS011;11524;50.846;4.326;2023-04-10T07:29:13;4.32;;;3.10;;
22713;SDS011;11524;50.846;4.326;2023-04-10T07:31:39;3.83;;;2.50;;
22713;SDS011;11524;50.846;4.326;2023-04-10T07:34:05;3.78;;;2.90;;
22713;SDS011;11524;50.846;4.326;2023-04-10T07:36:31;3.80;;;2.70;;
22713;SDS011;11524;50.846;4.326;2023-04-10T07:38:56;3.30;;;2.97;;
22713;SDS011;11524;50.846;4.326;2023-04-10T07:41:22;4.55;;;2.53;;
22713;SDS011;11524;50.846;4.326;2023-04-10T07:43:48;3.83;;;2.88;;
22713;SDS011;11524;50.846;4.326;2023-04-10T07:46:14;3.72;;;2.65;;
22713;SDS011;11524;50.846;4.326;2023-04-10T07:48:40;4.82;;;2.60;;
22713;SDS011;11524;50.846;4.326;2023-04-10T07:51:06;3.30;;;2.60;;
22713;SDS011;11524;50.846;4.326;2023-04-10T07:53:34;6.28;;;2.45;;
22713;SDS011;11524;50.846;4.326;2023-04-10T07:56:00;9.32;;;2.92;;
22713;SDS011;11524;50.846;4.326;2023-04-10T07:58:26;4.85;;;2.60;;
22713;SDS011;11524;50.846;4.326;2023-04-10T08:00:52;2.72;;;2.42;;
22713;SDS011;11524;50.846;4.326;2023-04-10T08:03:18;4.18;;;3.20;;
22713;SDS011;11524;50.846;4.326;2023-04-10T08:05:43;8.05;;;2.85;;
22713;SDS011;11524;50.846;4.326;2023-04-10T08:08:09;3.83;;;3.00;;
22713;SDS011;11524;50.846;4.326;2023-04-10T08:10:35;4.38;;;3.10;;
22713;SDS011;11524;50.846;4.326;2023-04-10T08:13:02;4.13;;;3.00;;
22713;SDS011;11524;50.846;4.326;2023-04-10T08:15:27;4.55;;;2.60;;
22713;SDS011;11524;50.846;4.326;2023-04-10T08:17:53;5.28;;;3.33;;
22713;SDS011;11524;50.846;4.326;2023-04-10T08:20:18;4.03;;;3.10;;
22713;SDS011;11524;50.846;4.326;2023-04-10T08:22:44;5.50;;;2.33;;
22713;SDS011;11524;50.846;4.326;2023-04-10T08:25:10;4.65;;;3.00;;
22713;SDS011;11524;50.846;4.326;2023-04-10T08:27:36;4.25;;;3.15;;
22713;SDS011;11524;50.846;4.326;2023-04-10T08:30:01;3.85;;;2.90;;
22713;SDS011;11524;50.846;4.326;2023-04-10T08:32:28;3.90;;;3.00;;
22713;SDS011;11524;50.846;4.326;2023-04-10T08:34:54;3.72;;;2.92;;
22713;SDS011;11524;50.846;4.326;2023-04-10T08:37:20;4.88;;;3.38;;
22713;SDS011;11524;50.846;4.326;2023-04-10T08:39:45;3.78;;;3.30;;
22713;SDS011;11524;50.846;4.326;2023-04-10T08:42:11;6.30;;;3.63;;
22713;SDS011;11524;50.846;4.326;2023-04-10T08:44:36;6.20;;;3.05;;
22713;SDS011;11524;50.846;4.326;2023-04-10T08:47:03;4.22;;;3.60;;
22713;SDS011;11524;50.846;4.326;2023-04-10T08:52:08;10.65;;;2.70;;
22713;SDS011;11524;50.846;4.326;2023-04-10T08:54:40;4.65;;;3.35;;
22713;SDS011;11524;50.846;4.326;2023-04-10T08:57:10;7.03;;;3.22;;
22713;SDS011;11524;50.846;4.326;2023-04-10T08:59:41;5.93;;;3.70;;
22713;SDS011;11524;50.846;4.326;2023-04-10T09:02:07;4.65;;;3.22;;
22713;SDS011;11524;50.846;4.326;2023-04-10T09:04:32;7.07;;;3.58;;
22713;SDS011;11524;50.846;4.326;2023-04-10T09:06:58;4.93;;;3.33;;
22713;SDS011;11524;50.846;4.326;2023-04-10T09:09:24;9.52;;;3.40;;
22713;SDS011;11524;50.846;4.326;2023-04-10T09:14:35;7.00;;;3.00;;
22713;SDS011;11524;50.846;4.326;2023-04-10T09:19:41;8.38;;;3.70;;
22713;SDS011;11524;50.846;4.326;2023-04-10T09:22:07;8.00;;;3.40;;
22713;SDS011;11524;50.846;4.326;2023-04-10T09:24:36;7.28;;;2.55;;
22713;SDS011;11524;50.846;4.326;2023-04-10T09:27:06;8.82;;;3.38;;
22713;SDS011;11524;50.846;4.326;2023-04-10T09:29:43;5.40;;;3.10;;
22713;SDS011;11524;50.846;4.326;2023-04-10T09:32:12;5.38;;;3.15;;
22713;SDS011;11524;50.846;4.326;2023-04-10T09:34:51;6.28;;;3.03;;
22713;SDS011;11524;50.846;4.326;2023-04-10T09:37:18;6.75;;;3.10;;
22713;SDS011;11524;50.846;4.326;2023-04-10T09:39:45;7.57;;;3.10;;
22713;SDS011;11524;50.846;4.326;2023-04-10T09:42:11;4.47;;;3.25;;
22713;SDS011;11524;50.846;4.326;2023-04-10T09:44:38;5.20;;;2.65;;
22713;SDS011;11524;50.846;4.326;2023-04-10T09:49:45;5.05;;;2.92;;
22713;SDS011;11524;50.846;4.326;2023-04-10T09:52:23;5.57;;;3.28;;
22713;SDS011;11524;50.846;4.326;2023-04-10T09:54:50;3.72;;;2.92;;
22713;SDS011;11524;50.846;4.326;2023-04-10T09:57:17;4.60;;;2.70;;
22713;SDS011;11524;50.846;4.326;2023-04-10T09:59:50;6.55;;;3.05;;
22713;SDS011;11524;50.846;4.326;2023-04-10T10:02:18;6.72;;;3.17;;
22713;SDS011;11524;50.846;4.326;2023-04-10T10:04:45;3.10;;;2.70;;
22713;SDS011;11524;50.846;4.326;2023-04-10T10:07:13;4.80;;;2.78;;
22713;SDS011;11524;50.846;4.326;2023-04-10T10:09:42;3.83;;;2.70;;
22713;SDS011;11524;50.846;4.326;2023-04-10T10:12:09;8.43;;;2.90;;
22713;SDS011;11524;50.846;4.326;2023-04-10T10:14:38;6.03;;;3.28;;
22713;SDS011;11524;50.846;4.326;2023-04-10T10:17:11;4.47;;;3.13;;
22713;SDS011;11524;50.846;4.326;2023-04-10T10:19:48;3.53;;;2.60;;
22713;SDS011;11524;50.846;4.326;2023-04-10T10:22:26;4.43;;;2.40;;
22713;SDS011;11524;50.846;4.326;2023-04-10T10:24:53;3.65;;;2.53;;
22713;SDS011;11524;50.846;4.326;2023-04-10T10:27:21;5.28;;;2.95;;
22713;SDS011;11524;50.846;4.326;2023-04-10T10:29:48;5.47;;;3.03;;
22713;SDS011;11524;50.846;4.326;2023-04-10T10:32:15;2.70;;;2.35;;
22713;SDS011;11524;50.846;4.326;2023-04-10T10:34:42;4.28;;;2.30;;
22713;SDS011;11524;50.846;4.326;2023-04-10T10:37:08;3.65;;;2.35;;
22713;SDS011;11524;50.846;4.326;2023-04-10T10:47:42;3.10;;;2.28;;
22713;SDS011;11524;50.846;4.326;2023-04-10T10:50:11;2.80;;;2.05;;
22713;SDS011;11524;50.846;4.326;2023-04-10T11:05:50;3.58;;;2.22;;
22713;SDS011;11524;50.846;4.326;2023-04-10T11:08:16;2.60;;;2.20;;
22713;SDS011;11524;50.846;4.326;2023-04-10T11:13:31;2.70;;;2.40;;
22713;SDS011;11524;50.846;4.326;2023-04-10T11:15:58;2.97;;;2.42;;
22713;SDS011;11524;50.846;4.326;2023-04-10T11:28:58;4.57;;;2.45;;
22713;SDS011;11524;50.846;4.326;2023-04-10T11:31:25;3.67;;;2.22;;
22713;SDS011;11524;50.846;4.326;2023-04-10T11:34:04;4.15;;;2.08;;
22713;SDS011;11524;50.846;4.326;2023-04-10T11:36:32;2.50;;;2.20;;
22713;SDS011;11524;50.846;4.326;2023-04-10T11:39:06;3.63;;;2.40;;
22713;SDS011;11524;50.846;4.326;2023-04-10T11:44:10;2.58;;;2.08;;
22713;SDS011;11524;50.846;4.326;2023-04-10T11:46:38;2.88;;;2.10;;
22713;SDS011;11524;50.846;4.326;2023-04-10T11:49:08;3.00;;;2.22;;
22713;SDS011;11524;50.846;4.326;2023-04-10T11:51:35;4.28;;;2.30;;
22713;SDS011;11524;50.846;4.326;2023-04-10T11:54:11;2.00;;;1.80;;
22713;SDS011;11524;50.846;4.326;2023-04-10T11:59:27;2.42;;;1.88;;
22713;SDS011;11524;50.846;4.326;2023-04-10T12:02:01;2.80;;;2.13;;
22713;SDS011;11524;50.846;4.326;2023-04-10T12:04:35;2.70;;;1.92;;
22713;SDS011;11524;50.846;4.326;2023-04-10T12:07:01;2.08;;;1.80;;
22713;SDS011;11524;50.846;4.326;2023-04-10T12:09:27;4.57;;;2.03;;
22713;SDS011;11524;50.846;4.326;2023-04-10T12:12:05;3.10;;;1.90;;
22713;SDS011;11524;50.846;4.326;2023-04-10T12:14:35;2.00;;;1.80;;
22713;SDS011;11524;50.846;4.326;2023-04-10T12:17:02;1.77;;;1.67;;
22713;SDS011;11524;50.846;4.326;2023-04-10T12:19:29;1.83;;;1.63;;
22713;SDS011;11524;50.846;4.326;2023-04-10T12:21:56;1.70;;;1.60;;
22713;SDS011;11524;50.846;4.326;2023-04-10T12:27:25;2.00;;;1.80;;
22713;SDS011;11524;50.846;4.326;2023-04-10T12:29:53;3.28;;;2.10;;
22713;SDS011;11524;50.846;4.326;2023-04-10T12:32:20;1.83;;;1.70;;
22713;SDS011;11524;50.846;4.326;2023-04-10T12:34:50;2.22;;;1.60;;
22713;SDS011;11524;50.846;4.326;2023-04-10T12:37:16;2.67;;;1.85;;
22713;SDS011;11524;50.846;4.326;2023-04-10T12:39:42;1.92;;;1.70;;
22713;SDS011;11524;50.846;4.326;2023-04-10T12:42:11;2.40;;;2.00;;
22713;SDS011;11524;50.846;4.326;2023-04-10T12:44:53;2.33;;;2.10;;
22713;SDS011;11524;50.846;4.326;2023-04-10T12:47:21;3.10;;;2.20;;
22713;SDS011;11524;50.846;4.326;2023-04-10T12:52:30;2.40;;;2.20;;
22713;SDS011;11524;50.846;4.326;2023-04-10T12:55:15;2.67;;;2.03;;
22713;SDS011;11524;50.846;4.326;2023-04-10T12:57:45;2.58;;;1.90;;
22713;SDS011;11524;50.846;4.326;2023-04-10T13:00:13;3.20;;;2.13;;
22713;SDS011;11524;50.846;4.326;2023-04-10T13:02:40;4.05;;;2.15;;
22713;SDS011;11524;50.846;4.326;2023-04-10T13:05:07;1.90;;;1.70;;
22713;SDS011;11524;50.846;4.326;2023-04-10T13:07:33;2.38;;;1.77;;
22713;SDS011;11524;50.846;4.326;2023-04-10T13:10:00;4.35;;;2.30;;
22713;SDS011;11524;50.846;4.326;2023-04-10T13:12:26;3.10;;;2.25;;
22713;SDS011;11524;50.846;4.326;2023-04-10T13:14:53;2.15;;;1.92;;
22713;SDS011;11524;50.846;4.326;2023-04-10T13:17:20;2.40;;;1.80;;
22713;SDS011;11524;50.846;4.326;2023-04-10T13:19:46;2.13;;;1.90;;
22713;SDS011;11524;50.846;4.326;2023-04-10T13:22:12;3.30;;;2.03;;
22713;SDS011;11524;50.846;4.326;2023-04-10T13:24:37;2.78;;;1.90;;
22713;SDS011;11524;50.846;4.326;2023-04-10T13:27:03;2.42;;;1.92;;
22713;SDS011;11524;50.846;4.326;2023-04-10T13:29:29;2.45;;;2.00;;
22713;SDS011;11524;50.846;4.326;2023-04-10T13:31:54;2.20;;;1.80;;
22713;SDS011;11524;50.846;4.326;2023-04-10T13:34:20;3.40;;;1.80;;
22713;SDS011;11524;50.846;4.326;2023-04-10T13:36:46;2.22;;;1.80;;
22713;SDS011;11524;50.846;4.326;2023-04-10T13:39:12;2.15;;;1.95;;
22713;SDS011;11524;50.846;4.326;2023-04-10T13:41:38;2.33;;;1.90;;
22713;SDS011;11524;50.846;4.326;2023-04-10T13:44:03;2.80;;;1.98;;
22713;SDS011;11524;50.846;4.326;2023-04-10T13:46:29;2.50;;;2.15;;
22713;SDS011;11524;50.846;4.326;2023-04-10T13:48:55;2.08;;;1.50;;
22713;SDS011;11524;50.846;4.326;2023-04-10T13:51:21;2.55;;;1.90;;
22713;SDS011;11524;50.846;4.326;2023-04-10T13:53:46;3.15;;;1.85;;
22713;SDS011;11524;50.846;4.326;2023-04-10T13:56:12;2.03;;;1.75;;
22713;SDS011;11524;50.846;4.326;2023-04-10T13:58:37;2.13;;;1.70;;
22713;SDS011;11524;50.846;4.326;2023-04-10T14:01:03;2.33;;;1.95;;
22713;SDS011;11524;50.846;4.326;2023-04-10T14:03:29;2.53;;;1.70;;
22713;SDS011;11524;50.846;4.326;2023-04-10T14:05:54;2.30;;;1.67;;
22713;SDS011;11524;50.846;4.326;2023-04-10T14:08:20;1.73;;;1.63;;
22713;SDS011;11524;50.846;4.326;2023-04-10T14:10:46;3.20;;;2.10;;
22713;SDS011;11524;50.846;4.326;2023-04-10T14:13:18;1.67;;;1.58;;
22713;SDS011;11524;50.846;4.326;2023-04-10T14:15:44;1.88;;;1.70;;
22713;SDS011;11524;50.846;4.326;2023-04-10T14:18:10;1.70;;;1.60;;
22713;SDS011;11524;50.846;4.326;2023-04-10T14:20:36;1.80;;;1.60;;
22713;SDS011;11524;50.846;4.326;2023-04-10T14:23:01;1.80;;;1.70;;
22713;SDS011;11524;50.846;4.326;2023-04-10T14:25:27;2.20;;;1.70;;
22713;SDS011;11524;50.846;4.326;2023-04-10T14:27:52;1.90;;;1.70;;
22713;SDS011;11524;50.846;4.326;2023-04-10T14:30:18;2.22;;;1.42;;
22713;SDS011;11524;50.846;4.326;2023-04-10T14:32:44;2.15;;;1.58;;
22713;SDS011;11524;50.846;4.326;2023-04-10T14:35:10;1.98;;;1.60;;
22713;SDS011;11524;50.846;4.326;2023-04-10T14:37:36;2.08;;;1.60;;
22713;SDS011;11524;50.846;4.326;2023-04-10T14:40:02;1.67;;;1.35;;
22713;SDS011;11524;50.846;4.326;2023-04-10T14:42:31;1.75;;;1.50;;
22713;SDS011;11524;50.846;4.326;2023-04-10T14:44:57;2.08;;;1.67;;
22713;SDS011;11524;50.846;4.326;2023-04-10T14:47:25;4.10;;;1.88;;
22713;SDS011;11524;50.846;4.326;2023-04-10T14:49:50;2.20;;;1.80;;
22713;SDS011;11524;50.846;4.326;2023-04-10T14:52:16;1.75;;;1.65;;
22713;SDS011;11524;50.846;4.326;2023-04-10T14:54:42;2.83;;;1.42;;
22713;SDS011;11524;50.846;4.326;2023-04-10T14:57:08;2.33;;;1.40;;
22713;SDS011;11524;50.846;4.326;2023-04-10T14:59:33;1.88;;;1.38;;
22713;SDS011;11524;50.846;4.326;2023-04-10T15:01:59;2.03;;;1.50;;
22713;SDS011;11524;50.846;4.326;2023-04-10T15:04:25;2.70;;;1.60;;
22713;SDS011;11524;50.846;4.326;2023-04-10T15:06:50;2.88;;;1.23;;
22713;SDS011;11524;50.846;4.326;2023-04-10T15:09:16;2.22;;;1.30;;
22713;SDS011;11524;50.846;4.326;2023-04-10T15:11:42;1.90;;;1.52;;
22713;SDS011;11524;50.846;4.326;2023-04-10T15:14:07;2.08;;;1.40;;
22713;SDS011;11524;50.846;4.326;2023-04-10T15:16:33;2.15;;;1.40;;
22713;SDS011;11524;50.846;4.326;2023-04-10T15:18:58;2.70;;;1.60;;
22713;SDS011;11524;50.846;4.326;2023-04-10T15:21:24;2.10;;;1.70;;
22713;SDS011;11524;50.846;4.326;2023-04-10T15:23:51;2.90;;;1.52;;
22713;SDS011;11524;50.846;4.326;2023-04-10T15:26:17;2.08;;;1.45;;
22713;SDS011;11524;50.846;4.326;2023-04-10T15:28:43;2.05;;;1.80;;
22713;SDS011;11524;50.846;4.326;2023-04-10T15:31:09;1.77;;;1.55;;
22713;SDS011;11524;50.846;4.326;2023-04-10T15:33:34;3.00;;;1.83;;
22713;SDS011;11524;50.846;4.326;2023-04-10T15:36:01;2.55;;;1.67;;
22713;SDS011;11524;50.846;4.326;2023-04-10T15:38:28;2.63;;;2.17;;
22713;SDS011;11524;50.846;4.326;2023-04-10T15:40:54;2.47;;;2.00;;
22713;SDS011;11524;50.846;4.326;2023-04-10T15:43:19;3.47;;;2.00;;
22713;SDS011;11524;50.846;4.326;2023-04-10T15:45:45;2.35;;;1.90;;
22713;SDS011;11524;50.846;4.326;2023-04-10T15:48:11;2.47;;;1.80;;
22713;SDS011;11524;50.846;4.326;2023-04-10T15:50:37;2.00;;;1.80;;
22713;SDS011;11524;50.846;4.326;2023-04-10T15:53:04;2.15;;;1.83;;
22713;SDS011;11524;50.846;4.326;2023-04-10T15:55:30;2.53;;;2.03;;
22713;SDS011;11524;50.846;4.326;2023-04-10T15:57:55;2.40;;;1.90;;